New Wells, Missouri
Current Conditions -  °F | °C
As of 5:33 AM on Monday 22 Dec 2014 (Local Time) from KCGI Reporting Station
Overcast Overcast  
Wind Chill:   Ceiling: 1300
Heat Index:   Visibility: 10mi
Dew Point:   Wind: 10mph
Humidity: 85%   Direction: 150°SSE
Pressure: 29.84"   Gusts: NA
Location:  37.5371°N, 89.5821°W
Report Text: KCGI 221133Z AUTO 15009KT 10SM BKN013 OVC090 07/04 A2984 RMK AO2 T00670044 TSNO
Loading
Personal Weather Stations






























Interactive Weather Map New forecast layout! Learn more

10-Day Weather Forecast

Advertisements
Track Severe Weather on mobile